createdAt,value
2023-06-29T00:02:00.731Z,15.23
2023-06-29T00:04:27.662Z,15.21
2023-06-29T00:06:55.893Z,15.23
2023-06-29T00:09:23.674Z,15.17
2023-06-29T00:11:50.761Z,15.26
2023-06-29T00:14:17.985Z,15.24
2023-06-29T00:16:45.531Z,15.25
2023-06-29T00:19:16.101Z,15.12
2023-06-29T00:21:43.229Z,15.13
2023-06-29T00:24:12.697Z,15.15
2023-06-29T00:26:39.963Z,15.24
2023-06-29T00:29:06.912Z,15.20
2023-06-29T00:31:34.298Z,15.25
2023-06-29T00:34:01.232Z,15.12
2023-06-29T00:36:28.027Z,15.10
2023-06-29T00:38:55.032Z,15.16
2023-06-29T00:41:22.142Z,15.12
2023-06-29T00:43:49.252Z,15.02
2023-06-29T00:46:19.220Z,15.03
2023-06-29T00:48:46.411Z,15.08
2023-06-29T00:51:14.464Z,15.08
2023-06-29T00:53:41.973Z,15.12
2023-06-29T00:56:08.973Z,15.04
2023-06-29T00:58:36.565Z,15.07
2023-06-29T01:01:03.388Z,15.04
2023-06-29T01:03:32.260Z,14.97
2023-06-29T01:06:02.654Z,14.97
2023-06-29T01:08:32.786Z,14.95
2023-06-29T01:11:00.431Z,15.01
2023-06-29T01:13:28.727Z,15.00
2023-06-29T01:15:55.989Z,15.07
2023-06-29T01:18:25.656Z,15.11
2023-06-29T01:20:53.393Z,15.12
2023-06-29T01:23:38.243Z,15.05
2023-06-29T01:26:06.704Z,15.06
2023-06-29T01:28:33.915Z,15.03
2023-06-29T01:31:03.521Z,15.04
2023-06-29T01:33:31.435Z,15.07
2023-06-29T01:36:10.843Z,15.03
2023-06-29T01:38:57.852Z,15.05
2023-06-29T01:41:25.709Z,15.00
2023-06-29T01:43:52.932Z,15.00
2023-06-29T01:46:21.392Z,15.04
2023-06-29T01:48:51.345Z,15.02
2023-06-29T01:51:18.501Z,15.01
2023-06-29T01:53:45.385Z,14.99
2023-06-29T01:56:12.415Z,15.01
2023-06-29T01:58:39.119Z,14.97
2023-06-29T02:01:06.070Z,14.93
2023-06-29T02:03:32.880Z,14.89
2023-06-29T02:05:59.835Z,14.90
2023-06-29T02:08:26.647Z,14.87
2023-06-29T02:10:53.661Z,14.89
2023-06-29T02:13:20.692Z,14.90
2023-06-29T02:15:47.722Z,14.88
2023-06-29T02:18:14.708Z,14.86
2023-06-29T02:20:41.842Z,14.75
2023-06-29T02:23:08.518Z,14.67
2023-06-29T02:25:35.083Z,14.67
2023-06-29T02:28:01.673Z,14.67
2023-06-29T02:30:28.693Z,14.62
2023-06-29T02:32:55.577Z,14.59
2023-06-29T02:35:22.237Z,14.55
2023-06-29T02:37:49.238Z,14.53
2023-06-29T02:40:16.651Z,14.52
2023-06-29T02:42:43.346Z,14.53
2023-06-29T02:45:10.641Z,14.55
2023-06-29T02:47:37.483Z,14.51
2023-06-29T02:50:04.477Z,14.52
2023-06-29T02:52:31.129Z,14.50
2023-06-29T02:54:57.807Z,14.52
2023-06-29T02:57:24.913Z,14.45
2023-06-29T02:59:51.658Z,14.37
2023-06-29T03:02:18.379Z,14.32
2023-06-29T03:04:45.213Z,14.31
2023-06-29T03:07:12.425Z,14.38
2023-06-29T03:09:39.147Z,14.38
2023-06-29T03:12:06.100Z,14.33
2023-06-29T03:14:32.808Z,14.23
2023-06-29T03:17:00.004Z,14.19
2023-06-29T03:19:28.899Z,14.17
2023-06-29T03:21:56.224Z,14.30
2023-06-29T03:24:22.859Z,14.33
2023-06-29T03:26:49.746Z,14.29
2023-06-29T03:29:16.497Z,14.31
2023-06-29T03:31:43.086Z,14.32
2023-06-29T03:34:09.758Z,14.39
2023-06-29T03:36:36.371Z,14.43
2023-06-29T03:39:03.369Z,14.59
2023-06-29T03:41:30.407Z,14.62
2023-06-29T03:43:57.126Z,14.74
2023-06-29T03:46:25.676Z,14.87
2023-06-29T03:48:52.365Z,14.91
2023-06-29T03:51:18.948Z,15.00
2023-06-29T03:53:45.888Z,15.03
2023-06-29T03:56:12.726Z,15.28
2023-06-29T03:58:39.466Z,15.52
2023-06-29T04:01:07.047Z,15.76
2023-06-29T04:03:35.129Z,16.01
2023-06-29T04:06:02.217Z,16.22
2023-06-29T04:08:29.301Z,16.46
2023-06-29T04:10:56.575Z,16.69
2023-06-29T04:13:23.343Z,17.00
2023-06-29T04:15:50.004Z,17.29
2023-06-29T04:18:17.672Z,17.40
2023-06-29T04:20:44.657Z,17.60
2023-06-29T04:23:15.708Z,17.77
2023-06-29T04:25:45.948Z,17.94
2023-06-29T04:28:14.130Z,18.15
2023-06-29T04:30:42.130Z,18.38
2023-06-29T04:33:12.201Z,18.53
2023-06-29T04:35:46.075Z,18.76
2023-06-29T04:38:14.593Z,19.04
2023-06-29T04:40:41.819Z,19.27
2023-06-29T04:43:11.405Z,19.46
2023-06-29T04:45:38.066Z,19.51
2023-06-29T04:48:05.266Z,19.51
2023-06-29T04:50:36.888Z,19.46
2023-06-29T04:53:10.711Z,19.20
2023-06-29T04:55:40.990Z,19.02
2023-06-29T04:58:07.833Z,18.77
2023-06-29T05:00:34.815Z,18.54
2023-06-29T05:03:01.982Z,18.41
2023-06-29T05:05:29.257Z,18.28
2023-06-29T05:07:55.812Z,18.34
2023-06-29T05:10:22.742Z,18.58
2023-06-29T05:12:49.370Z,18.80
2023-06-29T05:15:16.884Z,19.06
2023-06-29T05:17:44.546Z,19.34
2023-06-29T05:20:11.724Z,19.57
2023-06-29T05:22:38.445Z,19.65
2023-06-29T05:25:05.355Z,19.56
2023-06-29T05:27:32.477Z,19.57
2023-06-29T05:29:59.475Z,19.72
2023-06-29T05:32:26.096Z,20.01
2023-06-29T05:34:52.747Z,20.18
2023-06-29T05:37:19.455Z,20.50
2023-06-29T05:39:46.310Z,20.69
2023-06-29T05:42:13.278Z,20.78
2023-06-29T05:44:39.980Z,20.77
2023-06-29T05:47:08.516Z,20.83
2023-06-29T05:49:36.858Z,21.10
2023-06-29T05:52:04.081Z,21.20
2023-06-29T05:54:31.037Z,21.42
2023-06-29T05:56:58.451Z,21.59
2023-06-29T05:59:25.230Z,21.57
2023-06-29T06:01:52.503Z,21.36
2023-06-29T06:04:19.122Z,21.51
2023-06-29T06:06:48.013Z,21.76
2023-06-29T06:09:14.813Z,22.04
2023-06-29T06:11:41.812Z,22.30
2023-06-29T06:14:08.534Z,22.43
2023-06-29T06:16:38.378Z,22.21
2023-06-29T06:19:05.038Z,22.14
2023-06-29T06:21:31.778Z,21.78
2023-06-29T06:23:58.429Z,21.84
2023-06-29T06:26:25.864Z,21.94
2023-06-29T06:28:53.085Z,22.19
2023-06-29T06:31:32.846Z,22.29
2023-06-29T06:34:00.546Z,22.56
2023-06-29T06:36:28.284Z,22.76
2023-06-29T06:38:54.957Z,22.69
2023-06-29T06:41:21.678Z,22.67
2023-06-29T06:43:48.252Z,22.73
2023-06-29T06:46:15.302Z,22.97
2023-06-29T06:48:42.250Z,23.33
2023-06-29T06:51:08.887Z,23.62
2023-06-29T06:53:35.501Z,23.68
2023-06-29T06:56:02.235Z,23.83
2023-06-29T06:58:28.793Z,24.00
2023-06-29T07:00:55.492Z,24.00
2023-06-29T07:03:22.244Z,23.85
2023-06-29T07:05:49.407Z,23.75
2023-06-29T07:08:19.500Z,23.85
2023-06-29T07:10:46.426Z,23.81
2023-06-29T07:13:13.610Z,23.89
2023-06-29T07:15:40.460Z,23.92
2023-06-29T07:18:07.274Z,23.98
2023-06-29T07:25:33.541Z,24.47
2023-06-29T07:28:00.935Z,24.54
2023-06-29T07:30:27.762Z,24.71
2023-06-29T07:32:54.561Z,24.87
2023-06-29T07:35:21.274Z,24.83
2023-06-29T07:37:48.157Z,24.72
2023-06-29T07:40:15.661Z,24.87
2023-06-29T07:42:42.508Z,24.77
2023-06-29T07:45:09.433Z,24.73
2023-06-29T07:47:36.634Z,24.91
2023-06-29T07:50:03.552Z,24.77
2023-06-29T07:52:32.286Z,24.82
2023-06-29T07:54:59.448Z,25.00
2023-06-29T07:59:55.586Z,25.35
2023-06-29T08:02:22.338Z,25.45
2023-06-29T08:07:18.875Z,25.36
2023-06-29T08:09:45.741Z,25.43
2023-06-29T08:12:12.434Z,25.23
2023-06-29T08:14:39.129Z,25.26
2023-06-29T08:17:06.020Z,25.24
2023-06-29T08:19:32.826Z,25.44
2023-06-29T08:21:59.745Z,25.57
2023-06-29T08:24:26.331Z,25.52
2023-06-29T08:26:53.291Z,25.50
2023-06-29T08:29:21.687Z,25.64
2023-06-29T08:31:49.165Z,25.74
2023-06-29T08:34:15.907Z,25.77
2023-06-29T08:36:43.032Z,25.66
2023-06-29T08:39:10.236Z,25.80
2023-06-29T08:41:37.010Z,25.78
2023-06-29T08:44:05.929Z,25.74
2023-06-29T08:46:33.010Z,25.87
2023-06-29T08:49:01.640Z,26.36
2023-06-29T08:51:28.859Z,26.61
2023-06-29T08:53:55.819Z,26.62
2023-06-29T08:56:24.908Z,26.50
2023-06-29T08:58:52.530Z,26.69
2023-06-29T09:01:20.070Z,26.96
2023-06-29T09:03:47.566Z,26.81
2023-06-29T09:06:16.085Z,26.78
2023-06-29T09:08:43.003Z,26.77
2023-06-29T09:11:09.643Z,27.04
2023-06-29T09:13:36.349Z,27.04
2023-06-29T09:16:03.503Z,27.20
2023-06-29T09:18:31.205Z,27.22
2023-06-29T09:20:57.877Z,27.33
2023-06-29T09:23:27.108Z,27.16
2023-06-29T09:25:55.297Z,27.31
2023-06-29T09:28:22.132Z,27.52
2023-06-29T09:30:51.069Z,27.54
2023-06-29T09:33:18.250Z,27.31
2023-06-29T09:35:46.255Z,27.22
2023-06-29T09:38:14.310Z,27.38
2023-06-29T09:40:50.668Z,27.63
2023-06-29T09:43:18.336Z,27.48
2023-06-29T09:45:47.997Z,27.27
2023-06-29T09:50:52.867Z,27.25
2023-06-29T09:53:28.788Z,27.27
2023-06-29T09:55:56.947Z,27.48
2023-06-29T09:58:24.108Z,27.60
2023-06-29T10:00:51.877Z,27.64
2023-06-29T10:03:18.886Z,27.68
2023-06-29T10:05:45.621Z,27.92
2023-06-29T10:08:15.820Z,28.22
2023-06-29T10:10:43.501Z,28.26
2023-06-29T10:13:10.908Z,28.50
2023-06-29T10:15:38.364Z,28.70
2023-06-29T10:18:16.432Z,28.77
2023-06-29T10:20:45.318Z,28.48
2023-06-29T10:23:13.943Z,28.46
2023-06-29T10:25:42.922Z,28.27
2023-06-29T10:28:10.522Z,28.12
2023-06-29T10:30:48.108Z,28.21
2023-06-29T10:33:21.540Z,28.25
2023-06-29T10:35:59.383Z,28.22
2023-06-29T10:38:33.866Z,28.24
2023-06-29T10:41:00.783Z,28.39
2023-06-29T10:43:28.322Z,28.58
2023-06-29T10:45:55.037Z,28.66
2023-06-29T10:48:38.259Z,28.65
2023-06-29T10:51:10.009Z,28.72
2023-06-29T10:53:36.928Z,28.81
2023-06-29T10:56:03.967Z,28.91
2023-06-29T10:58:37.238Z,28.84
2023-06-29T11:01:03.988Z,28.71
2023-06-29T11:03:31.262Z,28.57
2023-06-29T11:05:59.671Z,28.62
2023-06-29T11:08:26.375Z,28.54
2023-06-29T11:10:53.764Z,28.46
2023-06-29T11:13:21.329Z,28.57
2023-06-29T11:15:55.830Z,28.64
2023-06-29T11:18:22.906Z,28.62
2023-06-29T11:20:50.030Z,28.37
2023-06-29T11:23:18.311Z,27.95
2023-06-29T11:25:54.077Z,27.68
2023-06-29T11:28:20.690Z,27.65
2023-06-29T11:30:50.792Z,27.45
2023-06-29T11:33:33.503Z,27.10
2023-06-29T11:36:02.356Z,27.07
2023-06-29T11:38:29.344Z,27.44
2023-06-29T11:41:06.485Z,27.70
2023-06-29T11:43:33.898Z,27.73
2023-06-29T11:46:01.582Z,27.87
2023-06-29T11:48:31.267Z,27.88
2023-06-29T11:51:01.556Z,27.92
2023-06-29T11:53:32.067Z,27.31
2023-06-29T11:55:58.911Z,26.99
2023-06-29T11:58:32.344Z,26.99
2023-06-29T12:00:59.295Z,27.11
2023-06-29T12:03:27.711Z,26.83
2023-06-29T12:05:54.903Z,26.96
2023-06-29T12:08:25.202Z,27.25
2023-06-29T12:10:52.156Z,27.25
2023-06-29T12:13:19.034Z,27.48
2023-06-29T12:18:17.060Z,27.45
2023-06-29T12:20:45.661Z,27.42
2023-06-29T12:23:13.597Z,27.48
2023-06-29T12:25:45.023Z,27.63
2023-06-29T12:28:12.339Z,27.77
2023-06-29T12:30:39.085Z,27.82
2023-06-29T12:33:05.795Z,27.68
2023-06-29T12:35:32.703Z,28.01
2023-06-29T12:37:59.553Z,28.25
2023-06-29T12:40:26.462Z,28.54
2023-06-29T12:42:53.393Z,28.43
2023-06-29T12:45:20.007Z,28.04
2023-06-29T12:47:47.525Z,27.80
2023-06-29T12:50:14.731Z,27.92
2023-06-29T12:52:41.914Z,28.03
2023-06-29T12:55:46.570Z,28.04
2023-06-29T12:58:13.455Z,28.13
2023-06-29T13:00:40.097Z,28.27
2023-06-29T13:03:12.873Z,28.40
2023-06-29T13:05:39.814Z,28.58
2023-06-29T13:08:06.943Z,28.59
2023-06-29T13:10:34.719Z,28.59
2023-06-29T13:13:01.999Z,28.53
2023-06-29T13:15:29.014Z,28.59
2023-06-29T13:17:56.266Z,28.74
2023-06-29T13:20:23.213Z,28.83
2023-06-29T13:22:49.913Z,28.87
2023-06-29T13:25:16.553Z,28.83
2023-06-29T13:27:46.852Z,28.87
2023-06-29T13:30:16.049Z,28.94
2023-06-29T13:32:43.043Z,28.79
2023-06-29T13:35:10.050Z,28.69
2023-06-29T13:37:36.853Z,28.55
2023-06-29T13:40:04.433Z,28.66
2023-06-29T13:42:31.050Z,28.75
2023-06-29T13:44:58.051Z,28.73
2023-06-29T13:47:24.947Z,28.59
2023-06-29T13:49:52.657Z,28.39
2023-06-29T13:52:19.449Z,28.33
2023-06-29T13:54:46.213Z,28.25
2023-06-29T13:57:13.197Z,28.02
2023-06-29T13:59:39.859Z,27.99
2023-06-29T14:02:07.335Z,28.07
2023-06-29T14:04:34.325Z,28.17
2023-06-29T14:07:01.416Z,28.28
2023-06-29T14:09:28.901Z,28.44
2023-06-29T14:11:55.765Z,28.27
2023-06-29T14:14:22.435Z,28.33
2023-06-29T14:16:49.050Z,28.32
2023-06-29T14:19:15.732Z,28.27
2023-06-29T14:21:44.925Z,28.24
2023-06-29T14:24:11.627Z,28.10
2023-06-29T14:26:38.163Z,27.95
2023-06-29T14:29:04.941Z,27.90
2023-06-29T14:31:31.815Z,27.98
2023-06-29T14:34:00.401Z,28.00
2023-06-29T14:36:27.450Z,28.16
2023-06-29T14:38:54.480Z,28.21
2023-06-29T14:41:21.415Z,28.11
2023-06-29T14:43:48.566Z,28.00
2023-06-29T14:46:15.339Z,27.97
2023-06-29T14:48:42.417Z,28.00
2023-06-29T14:51:09.694Z,27.87
2023-06-29T14:53:36.672Z,27.78
2023-06-29T14:56:11.069Z,27.76
2023-06-29T14:58:38.225Z,27.74
2023-06-29T15:01:05.213Z,27.72
2023-06-29T15:03:32.300Z,27.68
2023-06-29T15:05:59.718Z,27.59
2023-06-29T15:08:28.318Z,27.57
2023-06-29T15:10:55.107Z,27.58
2023-06-29T15:13:21.783Z,27.54
2023-06-29T15:15:49.036Z,27.38
2023-06-29T15:18:16.083Z,27.27
2023-06-29T15:20:42.877Z,27.26
2023-06-29T15:23:09.702Z,27.14
2023-06-29T15:25:39.156Z,26.98
2023-06-29T15:28:06.761Z,26.89
2023-06-29T15:30:41.122Z,26.81
2023-06-29T15:33:19.711Z,26.77
2023-06-29T15:35:46.850Z,26.81
2023-06-29T15:38:14.097Z,26.67
2023-06-29T15:40:41.883Z,26.57
2023-06-29T15:43:08.709Z,26.45
2023-06-29T15:45:35.864Z,26.29
2023-06-29T15:48:03.003Z,26.01
2023-06-29T15:50:30.306Z,26.00
2023-06-29T15:52:56.961Z,25.99
2023-06-29T15:55:23.721Z,25.99
2023-06-29T15:57:50.718Z,25.95
2023-06-29T16:00:17.920Z,25.91
2023-06-29T16:02:44.612Z,25.89
2023-06-29T16:05:11.455Z,25.81
2023-06-29T16:07:39.202Z,25.66
2023-06-29T16:10:06.084Z,25.52
2023-06-29T16:12:33.011Z,25.44
2023-06-29T16:15:00.774Z,25.32
2023-06-29T16:17:28.735Z,25.14
2023-06-29T16:19:55.996Z,24.97
2023-06-29T16:22:22.841Z,24.72
2023-06-29T16:24:49.575Z,24.71
2023-06-29T16:27:16.261Z,24.60
2023-06-29T16:29:43.469Z,24.52
2023-06-29T16:32:10.506Z,24.42
2023-06-29T16:34:37.364Z,24.27
2023-06-29T16:37:04.119Z,24.08
2023-06-29T16:39:30.990Z,23.91
2023-06-29T16:41:57.756Z,23.70
2023-06-29T16:44:24.390Z,23.58
2023-06-29T16:46:53.325Z,23.48
2023-06-29T16:49:20.207Z,23.43
2023-06-29T16:51:46.996Z,23.30
2023-06-29T16:54:13.555Z,23.18
2023-06-29T16:56:41.029Z,23.10
2023-06-29T16:59:07.591Z,23.05
2023-06-29T17:01:34.228Z,22.99
2023-06-29T17:04:00.892Z,22.90
2023-06-29T17:06:27.824Z,22.77
2023-06-29T17:08:54.614Z,22.66
2023-06-29T17:11:21.353Z,22.57
2023-06-29T17:13:48.923Z,22.47
2023-06-29T17:16:15.681Z,22.31
2023-06-29T17:18:42.452Z,22.19
2023-06-29T17:21:09.072Z,22.05
2023-06-29T17:23:36.041Z,21.94
2023-06-29T17:26:04.262Z,21.82
2023-06-29T17:28:30.889Z,21.70
2023-06-29T17:30:58.152Z,21.58
2023-06-29T17:33:25.056Z,21.46
2023-06-29T17:35:52.155Z,21.35
2023-06-29T17:38:19.371Z,21.22
2023-06-29T17:40:46.453Z,21.10
2023-06-29T17:43:13.117Z,21.07
2023-06-29T17:45:40.105Z,20.89
2023-06-29T17:48:09.956Z,20.73
2023-06-29T17:50:37.344Z,20.56
2023-06-29T17:53:04.244Z,20.47
2023-06-29T17:55:30.854Z,20.27
2023-06-29T17:57:58.039Z,20.13
2023-06-29T18:00:24.809Z,20.03
2023-06-29T18:02:51.573Z,19.92
2023-06-29T18:05:18.456Z,19.82
2023-06-29T18:07:45.410Z,19.69
2023-06-29T18:10:12.119Z,19.58
2023-06-29T18:12:39.262Z,19.55
2023-06-29T18:15:06.761Z,19.36
2023-06-29T18:17:34.033Z,19.26
2023-06-29T18:20:01.318Z,19.10
2023-06-29T18:22:28.261Z,18.98
2023-06-29T18:24:55.263Z,18.89
2023-06-29T18:27:23.436Z,18.82
2023-06-29T18:29:50.464Z,18.73
2023-06-29T18:32:18.343Z,18.61
2023-06-29T18:34:47.027Z,18.53
2023-06-29T18:37:13.899Z,18.44
2023-06-29T18:39:40.825Z,18.38
2023-06-29T18:42:07.937Z,18.33
2023-06-29T18:44:34.778Z,18.20
2023-06-29T18:47:06.157Z,18.10
2023-06-29T18:49:45.906Z,17.99
2023-06-29T18:52:18.205Z,17.99
2023-06-29T18:54:45.530Z,17.85
2023-06-29T18:57:12.446Z,17.76
2023-06-29T18:59:40.095Z,17.69
2023-06-29T19:02:09.744Z,17.56
2023-06-29T19:04:37.209Z,17.50
2023-06-29T19:07:04.082Z,17.44
2023-06-29T19:09:31.485Z,17.34
2023-06-29T19:11:58.456Z,17.30
2023-06-29T19:14:25.307Z,17.27
2023-06-29T19:16:52.251Z,17.29
2023-06-29T19:19:19.316Z,17.24
2023-06-29T19:21:49.183Z,17.08
2023-06-29T19:24:16.886Z,17.01
2023-06-29T19:26:43.932Z,16.94
2023-06-29T19:29:14.430Z,16.90
2023-06-29T19:31:42.932Z,16.82
2023-06-29T19:34:11.870Z,16.74
2023-06-29T19:36:39.167Z,16.67
2023-06-29T19:39:05.878Z,16.58
2023-06-29T19:41:32.636Z,16.54
2023-06-29T19:44:00.818Z,16.50
2023-06-29T19:46:27.697Z,16.46
2023-06-29T19:48:54.654Z,16.41
2023-06-29T19:51:21.716Z,16.37
2023-06-29T19:53:48.784Z,16.29
2023-06-29T19:56:15.997Z,16.19
2023-06-29T19:58:43.167Z,16.14
2023-06-29T20:01:10.121Z,16.08
2023-06-29T20:03:37.203Z,16.00
2023-06-29T20:06:04.578Z,15.96
2023-06-29T20:08:31.679Z,15.89
2023-06-29T20:10:58.943Z,15.82
2023-06-29T20:13:26.403Z,15.77
2023-06-29T20:15:53.713Z,15.78
2023-06-29T20:18:20.906Z,15.74
2023-06-29T20:20:47.754Z,15.64
2023-06-29T20:23:14.667Z,15.64
2023-06-29T20:25:41.343Z,15.53
2023-06-29T20:28:08.092Z,15.56
2023-06-29T20:30:34.960Z,15.52
2023-06-29T20:33:02.134Z,15.49
2023-06-29T20:35:29.496Z,15.49
2023-06-29T20:37:56.403Z,15.40
2023-06-29T20:40:24.527Z,15.40
2023-06-29T20:42:51.460Z,15.33
2023-06-29T20:45:18.295Z,15.30
2023-06-29T20:47:45.537Z,15.26
2023-06-29T20:50:12.620Z,15.24
2023-06-29T20:52:39.653Z,15.18
2023-06-29T20:55:06.770Z,15.12
2023-06-29T20:57:38.410Z,15.07
2023-06-29T21:00:11.362Z,15.11
2023-06-29T21:02:38.660Z,15.09
2023-06-29T21:05:06.044Z,15.10
2023-06-29T21:07:33.297Z,15.03
2023-06-29T21:10:00.133Z,14.93
2023-06-29T21:12:27.444Z,14.89
2023-06-29T21:14:54.598Z,14.97
2023-06-29T21:17:21.644Z,14.88
2023-06-29T21:19:49.063Z,14.85
2023-06-29T21:22:17.981Z,14.77
2023-06-29T21:24:45.310Z,14.74
2023-06-29T21:27:19.022Z,14.75
2023-06-29T21:29:47.416Z,14.73
2023-06-29T21:32:15.302Z,14.70
2023-06-29T21:34:42.524Z,14.63
2023-06-29T21:37:09.664Z,14.58
2023-06-29T21:39:36.278Z,14.51
2023-06-29T21:42:03.032Z,14.48
2023-06-29T21:44:29.718Z,14.46
2023-06-29T21:46:56.638Z,14.41
2023-06-29T21:49:23.583Z,14.42
2023-06-29T21:51:50.406Z,14.42
2023-06-29T21:54:17.407Z,14.38
2023-06-29T21:56:45.249Z,14.39
2023-06-29T21:59:11.922Z,14.39
2023-06-29T22:01:38.683Z,14.41
2023-06-29T22:04:05.521Z,14.38
2023-06-29T22:06:32.485Z,14.38
2023-06-29T22:08:59.143Z,14.39
2023-06-29T22:11:28.170Z,14.23
2023-06-29T22:13:55.214Z,14.28
2023-06-29T22:16:25.034Z,14.29
2023-06-29T22:18:52.329Z,14.22
2023-06-29T22:21:22.438Z,14.21
2023-06-29T22:23:53.680Z,14.14
2023-06-29T22:26:20.990Z,14.14
2023-06-29T22:28:47.900Z,14.14
2023-06-29T22:31:18.694Z,14.07
2023-06-29T22:33:46.425Z,14.00
2023-06-29T22:36:14.909Z,13.93
2023-06-29T22:38:42.241Z,13.89
2023-06-29T22:41:09.631Z,13.83
2023-06-29T22:43:36.770Z,13.91
2023-06-29T22:46:03.759Z,13.84
2023-06-29T22:48:30.882Z,13.85
2023-06-29T22:50:57.986Z,13.79
2023-06-29T22:53:25.152Z,13.84
2023-06-29T22:55:51.979Z,13.81
2023-06-29T22:58:25.670Z,13.80
2023-06-29T23:00:53.501Z,13.75
2023-06-29T23:03:20.820Z,13.73
2023-06-29T23:05:48.245Z,13.77
2023-06-29T23:08:16.655Z,13.73
2023-06-29T23:10:43.557Z,13.64
2023-06-29T23:13:15.606Z,13.60
2023-06-29T23:15:44.704Z,13.63
2023-06-29T23:18:13.250Z,13.65
2023-06-29T23:20:45.208Z,13.61
2023-06-29T23:23:14.400Z,13.61
2023-06-29T23:25:42.262Z,13.56
2023-06-29T23:28:09.111Z,13.54
2023-06-29T23:30:36.848Z,13.51
2023-06-29T23:33:03.928Z,13.57
2023-06-29T23:35:30.773Z,13.55
2023-06-29T23:37:57.637Z,13.45
2023-06-29T23:40:27.442Z,13.41
2023-06-29T23:42:54.926Z,13.33
2023-06-29T23:45:23.025Z,13.37
2023-06-29T23:47:50.638Z,13.32
2023-06-29T23:50:19.850Z,13.32
2023-06-29T23:52:46.971Z,13.32
2023-06-29T23:55:14.150Z,13.28
2023-06-29T23:57:42.177Z,13.30
